Time;durP1;ratioP1;P1;durP2;ratioP2;P2;SDS_P1;SDS_P2;PMS_P1;PMS_P2;Temp;Humidity;BMP_temperature;BMP_pressure;BME280_temperature;BME280_humidity;BME280_pressure;Samples;Min_cycle;Max_cycle;Signal;HPM_P1;HPM_P2
2023/06/23 00:00:28;;;;;;;4.03;3.10;;;26.60;66.90;;;;;;5001215;28;20138;-65
2023/06/23 00:02:53;;;;;;;5.72;3.28;;;26.60;66.90;;;;;;5004149;28;20024;-63
2023/06/23 00:05:19;;;;;;;5.15;3.08;;;26.60;66.90;;;;;;5002642;28;20034;-65
2023/06/23 00:07:45;;;;;;;5.85;3.38;;;26.60;66.80;;;;;;5002164;28;20393;-66
2023/06/23 00:10:11;;;;;;;6.78;3.33;;;26.60;66.90;;;;;;5003593;28;20080;-65
2023/06/23 00:12:41;;;;;;;4.20;2.75;;;26.60;66.80;;;;;;5004049;28;20032;-65
2023/06/23 00:15:08;;;;;;;5.80;2.95;;;26.60;66.80;;;;;;5003808;28;20129;-65
2023/06/23 00:17:36;;;;;;;7.32;2.85;;;26.50;66.80;;;;;;5001149;28;20036;-65
2023/06/23 00:20:03;;;;;;;3.88;2.92;;;26.60;66.80;;;;;;5004167;28;20037;-64
2023/06/23 00:22:29;;;;;;;5.45;3.08;;;26.60;66.80;;;;;;5003563;28;20532;-65
2023/06/23 00:24:54;;;;;;;4.55;2.70;;;26.60;67.40;;;;;;5004647;28;20697;-64
2023/06/23 00:27:20;;;;;;;3.80;2.70;;;26.60;66.70;;;;;;5004360;28;20504;-64
2023/06/23 00:29:46;;;;;;;4.78;2.70;;;26.60;66.70;;;;;;5002695;28;20065;-65
2023/06/23 00:32:12;;;;;;;5.65;3.05;;;26.60;66.70;;;;;;4993103;28;20534;-65
2023/06/23 00:34:37;;;;;;;4.38;2.70;;;26.60;66.70;;;;;;5014563;28;20026;-65
2023/06/23 00:37:03;;;;;;;6.05;2.90;;;26.60;66.70;;;;;;5002390;28;20642;-64
2023/06/23 00:39:28;;;;;;;5.28;3.10;;;26.60;66.70;;;;;;5001730;28;20037;-64
2023/06/23 00:41:54;;;;;;;4.18;2.80;;;26.60;66.70;;;;;;4999082;28;20109;-65
2023/06/23 00:44:19;;;;;;;4.38;2.72;;;26.60;66.70;;;;;;5003157;28;20629;-65
2023/06/23 00:46:45;;;;;;;4.47;3.13;;;26.60;66.70;;;;;;5001783;28;20026;-64
2023/06/23 00:49:15;;;;;;;8.18;3.67;;;26.60;66.70;;;;;;5002700;28;20045;-65
2023/06/23 00:51:40;;;;;;;5.57;2.60;;;26.60;66.60;;;;;;5001220;28;20114;-64
2023/06/23 00:54:07;;;;;;;4.82;2.70;;;26.60;66.60;;;;;;5001267;28;20118;-65
2023/06/23 00:56:33;;;;;;;4.57;2.78;;;26.60;66.70;;;;;;5002510;28;20022;-66
2023/06/23 00:58:59;;;;;;;4.68;2.80;;;26.60;66.60;;;;;;5000294;28;20026;-64
2023/06/23 01:01:25;;;;;;;4.43;2.67;;;26.60;66.60;;;;;;5000163;28;20041;-65
2023/06/23 01:03:51;;;;;;;3.75;2.42;;;26.60;66.60;;;;;;4995583;28;20030;-63
2023/06/23 01:06:37;;;;;;;5.20;2.60;;;26.60;66.60;;;;;;4996903;28;20495;-63
2023/06/23 01:09:14;;;;;;;5.38;2.67;;;26.60;66.60;;;;;;5002111;28;20029;-64
2023/06/23 01:12:19;;;;;;;4.55;2.70;;;26.60;66.60;;;;;;5001443;28;20527;-66
2023/06/23 01:15:06;;;;;;;6.80;3.78;;;26.60;66.60;;;;;;4984148;28;20116;-66
2023/06/23 01:17:57;;;;;;;5.90;2.63;;;26.60;66.60;;;;;;5000781;28;20500;-64
2023/06/23 01:20:29;;;;;;;5.03;2.85;;;26.60;66.60;;;;;;4998970;28;20522;-65
2023/06/23 01:23:27;;;;;;;6.57;2.13;;;26.60;66.60;;;;;;5002126;28;20037;-65
2023/06/23 01:26:07;;;;;;;3.95;2.53;;;26.60;66.60;;;;;;5002256;28;20034;-65
2023/06/23 01:28:51;;;;;;;4.78;2.90;;;26.60;66.60;;;;;;5001681;28;20069;-66
2023/06/23 01:31:40;;;;;;;4.10;2.50;;;26.60;66.60;;;;;;5003085;28;20030;-66
2023/06/23 01:34:09;;;;;;;6.55;2.72;;;26.60;67.20;;;;;;4998573;28;20041;-65
2023/06/23 01:36:49;;;;;;;6.65;2.88;;;26.60;66.50;;;;;;5002195;28;20033;-65
2023/06/23 01:39:19;;;;;;;5.93;2.67;;;26.60;66.50;;;;;;5001894;28;20041;-65
2023/06/23 01:41:52;;;;;;;4.57;2.55;;;26.60;66.50;;;;;;5002210;28;20100;-65
2023/06/23 01:44:21;;;;;;;5.13;2.28;;;26.60;66.50;;;;;;5002926;28;20030;-65
2023/06/23 01:46:51;;;;;;;5.22;2.30;;;26.60;66.50;;;;;;5003347;28;20034;-65
2023/06/23 01:49:23;;;;;;;4.07;2.47;;;26.60;66.50;;;;;;5000490;28;20435;-65
2023/06/23 01:51:49;;;;;;;4.60;2.42;;;26.60;66.50;;;;;;5002986;28;20041;-65
2023/06/23 01:54:17;;;;;;;4.38;2.40;;;26.60;66.50;;;;;;5002479;28;20042;-67
2023/06/23 01:56:43;;;;;;;4.22;2.20;;;26.60;66.50;;;;;;5000750;28;20053;-65
2023/06/23 01:59:11;;;;;;;5.05;2.50;;;26.60;66.50;;;;;;4996165;28;20128;-66
2023/06/23 02:01:37;;;;;;;3.60;2.10;;;26.70;66.50;;;;;;4997500;28;20034;-65
2023/06/23 02:04:05;;;;;;;3.67;2.25;;;26.60;66.50;;;;;;4997937;28;20049;-65
2023/06/23 02:06:34;;;;;;;4.70;2.40;;;26.60;66.50;;;;;;5001587;28;20030;-65
2023/06/23 02:09:01;;;;;;;3.83;2.08;;;26.60;66.50;;;;;;5004003;28;20096;-65
2023/06/23 02:11:27;;;;;;;2.45;1.80;;;26.60;66.50;;;;;;4999025;28;20028;-66
2023/06/23 02:13:55;;;;;;;4.82;2.20;;;26.60;66.40;;;;;;5024628;28;20030;-64
2023/06/23 02:16:23;;;;;;;3.03;2.00;;;26.60;66.40;;;;;;4999953;28;20041;-66
2023/06/23 02:18:53;;;;;;;4.78;2.50;;;26.60;66.40;;;;;;5002333;28;20125;-65
2023/06/23 02:21:23;;;;;;;4.95;2.42;;;26.60;66.40;;;;;;5000639;28;20053;-65
2023/06/23 02:23:50;;;;;;;5.63;2.10;;;26.60;66.40;;;;;;5000351;28;20045;-63
2023/06/23 02:26:16;;;;;;;2.50;1.70;;;26.60;66.40;;;;;;5002511;28;20045;-64
2023/06/23 02:28:49;;;;;;;3.08;2.17;;;26.60;66.50;;;;;;4995448;28;20039;-66
2023/06/23 02:31:19;;;;;;;3.70;2.03;;;26.60;66.40;;;;;;4996683;28;20041;-66
2023/06/23 02:33:45;;;;;;;4.05;2.00;;;26.60;66.40;;;;;;5001284;28;20045;-65
2023/06/23 02:36:13;;;;;;;3.95;2.35;;;26.60;66.40;;;;;;4998525;28;20448;-65
2023/06/23 02:38:41;;;;;;;4.55;1.90;;;26.60;66.40;;;;;;5006380;28;20037;-65
2023/06/23 02:41:08;;;;;;;2.50;1.70;;;26.60;66.40;;;;;;5007391;28;20030;-65
2023/06/23 02:43:43;;;;;;;3.55;2.15;;;26.60;66.40;;;;;;5006962;28;20033;-65
2023/06/23 02:46:11;;;;;;;2.50;2.08;;;26.60;66.40;;;;;;5005049;28;20169;-65
2023/06/23 02:48:39;;;;;;;2.97;2.33;;;26.60;66.40;;;;;;5006937;28;20034;-66
2023/06/23 02:51:09;;;;;;;3.40;1.88;;;26.60;66.40;;;;;;5006525;28;20503;-63
2023/06/23 02:53:41;;;;;;;3.03;1.73;;;26.60;66.30;;;;;;5005733;28;20061;-65
2023/06/23 02:56:16;;;;;;;4.60;2.08;;;26.60;66.30;;;;;;5004356;28;20021;-65
2023/06/23 02:58:46;;;;;;;4.15;1.95;;;26.60;66.30;;;;;;5000918;28;20042;-66
2023/06/23 03:01:14;;;;;;;3.28;2.05;;;26.60;66.30;;;;;;5006006;28;20040;-65
2023/06/23 03:03:42;;;;;;;4.35;1.83;;;26.60;66.30;;;;;;5005822;28;20053;-66
2023/06/23 03:06:20;;;;;;;2.45;1.92;;;26.60;66.40;;;;;;5004209;28;20053;-65
2023/06/23 03:08:47;;;;;;;2.67;1.73;;;26.60;66.30;;;;;;5004812;28;20034;-65
2023/06/23 03:11:15;;;;;;;4.68;2.20;;;26.60;66.30;;;;;;5005350;28;20026;-65
2023/06/23 03:13:41;;;;;;;3.97;2.17;;;26.60;66.30;;;;;;5001868;28;20141;-64
2023/06/23 03:16:22;;;;;;;4.60;2.13;;;26.60;66.30;;;;;;5004547;28;20109;-65
2023/06/23 03:18:55;;;;;;;4.13;1.90;;;26.60;66.40;;;;;;5003212;28;20038;-66
2023/06/23 03:21:23;;;;;;;4.00;1.70;;;26.60;66.30;;;;;;5003667;28;20065;-64
2023/06/23 03:23:51;;;;;;;3.08;1.95;;;26.60;66.30;;;;;;5004007;28;20037;-63
2023/06/23 03:26:19;;;;;;;3.90;2.08;;;26.60;66.30;;;;;;5000960;28;20826;-64
2023/06/23 03:28:48;;;;;;;2.55;1.75;;;26.60;66.30;;;;;;5003326;28;20045;-65
2023/06/23 03:31:16;;;;;;;3.38;2.00;;;26.60;66.30;;;;;;5002630;28;20114;-66
2023/06/23 03:33:43;;;;;;;3.15;1.77;;;26.60;66.30;;;;;;5001242;28;20041;-65
2023/06/23 03:36:17;;;;;;;3.88;1.95;;;26.60;66.30;;;;;;5004257;28;20038;-64
2023/06/23 03:38:59;;;;;;;2.60;1.58;;;26.60;66.30;;;;;;5001989;28;20030;-66
2023/06/23 03:41:28;;;;;;;3.53;1.55;;;26.60;66.30;;;;;;5001272;28;20463;-65
2023/06/23 03:44:01;;;;;;;3.60;2.28;;;26.60;66.30;;;;;;5003963;28;20041;-65
2023/06/23 03:46:35;;;;;;;3.78;1.95;;;26.60;66.30;;;;;;4986459;28;20031;-65
2023/06/23 03:49:03;;;;;;;3.08;1.70;;;26.60;66.30;;;;;;5002173;28;20042;-66
2023/06/23 03:51:32;;;;;;;4.72;2.05;;;26.60;66.30;;;;;;5003218;28;21154;-65
2023/06/23 03:53:59;;;;;;;3.58;1.90;;;26.50;66.20;;;;;;5003478;28;20113;-65
2023/06/23 03:56:26;;;;;;;5.43;2.08;;;26.60;66.30;;;;;;5002862;28;20088;-65
2023/06/23 03:58:53;;;;;;;4.82;2.50;;;26.50;66.20;;;;;;5003386;28;20042;-65
2023/06/23 04:01:20;;;;;;;2.67;1.70;;;26.50;66.20;;;;;;4998798;28;20075;-65
2023/06/23 04:03:48;;;;;;;2.65;1.80;;;26.50;66.20;;;;;;5000258;28;20042;-65
2023/06/23 04:06:14;;;;;;;2.33;1.80;;;26.50;66.20;;;;;;4999600;28;20056;-64
2023/06/23 04:08:41;;;;;;;3.70;1.83;;;26.60;66.30;;;;;;5000201;28;20041;-65
2023/06/23 04:11:09;;;;;;;3.65;1.90;;;26.60;66.30;;;;;;5004796;28;20540;-65
2023/06/23 04:13:36;;;;;;;4.38;1.88;;;26.60;66.90;;;;;;5003648;28;20040;-65
2023/06/23 04:16:04;;;;;;;2.10;1.80;;;26.60;66.30;;;;;;5005880;28;20117;-64
2023/06/23 04:18:32;;;;;;;2.95;2.15;;;26.50;66.20;;;;;;5004703;28;20604;-64
2023/06/23 04:20:59;;;;;;;3.15;2.20;;;26.60;66.20;;;;;;5006003;28;20096;-64
2023/06/23 04:23:26;;;;;;;3.92;2.13;;;26.50;66.20;;;;;;5002132;28;20053;-64
2023/06/23 04:25:52;;;;;;;3.45;2.38;;;26.50;66.20;;;;;;5003154;28;20084;-65
2023/06/23 04:28:19;;;;;;;4.15;2.10;;;26.60;66.20;;;;;;5004410;28;20038;-64
2023/06/23 04:30:45;;;;;;;3.83;2.42;;;26.50;66.10;;;;;;5002227;28;20022;-64
2023/06/23 04:33:11;;;;;;;4.07;2.10;;;26.60;66.20;;;;;;5003792;28;20496;-64
2023/06/23 04:35:37;;;;;;;5.00;2.13;;;26.60;66.20;;;;;;5001275;28;20052;-64
2023/06/23 04:38:08;;;;;;;2.75;2.33;;;26.60;66.20;;;;;;5002330;28;20034;-64
2023/06/23 04:40:45;;;;;;;4.00;2.10;;;26.60;66.20;;;;;;5000304;28;20068;-64
2023/06/23 04:43:29;;;;;;;2.35;2.10;;;26.60;66.20;;;;;;5002338;28;20065;-65
2023/06/23 04:46:08;;;;;;;6.90;2.40;;;26.60;66.00;;;;;;5002420;28;20091;-66
2023/06/23 04:48:37;;;;;;;2.72;1.90;;;26.60;66.00;;;;;;5003252;28;20038;-66
2023/06/23 04:51:05;;;;;;;5.75;1.98;;;26.60;66.00;;;;;;4999844;28;20034;-66
2023/06/23 04:53:46;;;;;;;2.30;1.65;;;26.60;66.00;;;;;;5001062;28;20038;-66
2023/06/23 04:56:15;;;;;;;2.72;1.83;;;26.70;66.00;;;;;;5003455;28;20034;-66
2023/06/23 04:58:43;;;;;;;3.13;2.15;;;26.70;66.10;;;;;;5003421;28;20022;-65
2023/06/23 05:01:11;;;;;;;3.58;2.30;;;26.70;66.20;;;;;;5012161;28;20056;-64
2023/06/23 05:03:38;;;;;;;2.20;1.75;;;26.70;66.30;;;;;;5012963;28;20029;-65
2023/06/23 05:06:06;;;;;;;2.95;1.70;;;26.70;66.20;;;;;;5000294;28;20161;-66
2023/06/23 05:08:33;;;;;;;4.03;1.88;;;26.70;66.40;;;;;;5000633;28;20041;-66
2023/06/23 05:11:05;;;;;;;6.97;3.03;;;26.70;65.50;;;;;;5003043;28;20034;-66
2023/06/23 05:13:32;;;;;;;5.95;3.03;;;26.40;65.20;;;;;;5002369;28;20081;-66
2023/06/23 05:16:00;;;;;;;5.78;3.10;;;26.10;65.60;;;;;;4997218;28;20042;-66
2023/06/23 05:18:27;;;;;;;6.57;2.75;;;26.00;66.10;;;;;;5001526;28;20034;-67
2023/06/23 05:20:55;;;;;;;7.80;3.33;;;26.00;66.10;;;;;;4996456;28;20556;-67
2023/06/23 05:23:22;;;;;;;6.32;2.60;;;25.90;66.00;;;;;;5001956;28;20544;-67
2023/06/23 05:25:50;;;;;;;5.93;2.58;;;25.70;66.20;;;;;;4997941;28;20060;-66
2023/06/23 05:28:17;;;;;;;7.03;2.45;;;25.70;66.30;;;;;;4998653;28;20064;-66
2023/06/23 05:30:44;;;;;;;4.45;2.45;;;25.70;66.50;;;;;;5001449;28;20133;-65
2023/06/23 05:33:10;;;;;;;6.00;1.98;;;25.70;66.40;;;;;;4998534;28;20081;-65
2023/06/23 05:35:39;;;;;;;5.30;2.30;;;25.70;66.50;;;;;;4997644;28;20049;-66
2023/06/23 05:38:06;;;;;;;2.42;2.00;;;25.70;66.50;;;;;;5000942;28;20030;-64
2023/06/23 05:40:32;;;;;;;3.88;2.35;;;25.70;66.60;;;;;;5000633;28;20029;-68
2023/06/23 05:42:57;;;;;;;4.10;2.17;;;25.70;66.30;;;;;;5004050;28;20037;-64
2023/06/23 05:45:23;;;;;;;5.43;2.00;;;25.60;66.10;;;;;;5002291;28;20113;-65
2023/06/23 05:48:04;;;;;;;3.83;1.17;;;25.50;66.00;;;;;;5001185;28;20037;-65
2023/06/23 05:50:34;;;;;;;1.90;1.33;;;25.40;65.60;;;;;;5002012;28;20105;-66
2023/06/23 05:53:05;;;;;;;4.15;1.38;;;25.30;65.70;;;;;;4999168;28;20030;-65
2023/06/23 05:55:34;;;;;;;2.13;1.25;;;25.30;66.00;;;;;;4999626;28;20030;-65
2023/06/23 05:58:04;;;;;;;1.63;1.10;;;25.20;65.90;;;;;;5003467;28;20053;-65
2023/06/23 06:00:42;;;;;;;1.67;1.00;;;25.20;65.90;;;;;;5001716;28;20029;-64
2023/06/23 06:03:12;;;;;;;2.90;1.33;;;25.20;66.10;;;;;;5002484;28;20049;-65
2023/06/23 06:05:40;;;;;;;1.58;0.90;;;25.10;66.00;;;;;;4998761;28;20492;-66
2023/06/23 06:08:08;;;;;;;1.05;0.80;;;25.10;66.10;;;;;;4999850;28;20041;-64
2023/06/23 06:10:35;;;;;;;2.33;1.10;;;25.00;66.30;;;;;;5002303;28;20117;-66
2023/06/23 06:13:03;;;;;;;3.25;1.10;;;25.10;66.40;;;;;;5007476;28;20029;-67
2023/06/23 06:15:30;;;;;;;2.15;1.00;;;25.00;66.00;;;;;;5007406;28;20038;-67
2023/06/23 06:17:59;;;;;;;1.52;1.13;;;25.00;66.20;;;;;;5007386;28;20050;-67
2023/06/23 06:20:26;;;;;;;2.05;0.93;;;25.00;66.30;;;;;;5006659;28;20117;-68
2023/06/23 06:22:53;;;;;;;1.50;0.85;;;25.00;66.20;;;;;;5004244;28;20030;-67
2023/06/23 06:25:20;;;;;;;2.80;1.00;;;25.00;66.30;;;;;;5005669;28;20701;-68
2023/06/23 06:27:48;;;;;;;0.82;0.82;;;25.00;66.40;;;;;;5003826;28;20397;-67
2023/06/23 06:30:16;;;;;;;1.85;1.30;;;25.10;66.30;;;;;;5005947;28;20936;-65
2023/06/23 06:32:42;;;;;;;1.35;1.20;;;25.00;66.30;;;;;;5007182;28;20040;-65
2023/06/23 06:35:10;;;;;;;1.20;0.90;;;24.90;66.10;;;;;;5002348;28;20034;-69
2023/06/23 06:37:40;;;;;;;1.17;0.93;;;24.90;66.40;;;;;;5007084;28;20050;-69
2023/06/23 06:40:07;;;;;;;2.15;1.10;;;25.00;66.50;;;;;;5017280;28;20656;-67
2023/06/23 06:42:33;;;;;;;2.90;1.38;;;24.90;65.80;;;;;;5007564;28;20125;-68
2023/06/23 06:44:59;;;;;;;2.75;1.10;;;24.90;65.70;;;;;;5007416;28;20114;-68
2023/06/23 06:47:25;;;;;;;2.97;1.52;;;24.80;65.90;;;;;;5008110;28;20459;-68
2023/06/23 06:49:52;;;;;;;2.17;1.90;;;24.70;65.40;;;;;;5006619;28;20049;-68
2023/06/23 06:52:18;;;;;;;22.75;3.70;;;24.70;64.90;;;;;;5007193;28;20407;-66
2023/06/23 06:54:44;;;;;;;12.48;2.97;;;24.70;64.60;;;;;;5004721;28;20026;-67
2023/06/23 06:57:10;;;;;;;6.38;3.13;;;24.60;64.60;;;;;;5006821;28;20060;-68
2023/06/23 06:59:36;;;;;;;3.30;2.33;;;24.70;64.00;;;;;;5005265;28;20061;-67
2023/06/23 07:02:04;;;;;;;4.07;2.25;;;24.70;64.20;;;;;;5005644;28;20062;-67
2023/06/23 07:04:30;;;;;;;5.13;2.25;;;24.60;64.00;;;;;;5004595;28;20034;-65
2023/06/23 07:06:55;;;;;;;5.20;2.30;;;24.60;63.90;;;;;;5006071;28;20087;-66
2023/06/23 07:09:21;;;;;;;3.00;2.53;;;24.50;63.40;;;;;;5005434;28;20710;-66
2023/06/23 07:11:48;;;;;;;5.07;2.50;;;24.50;63.60;;;;;;5006773;28;20087;-66
2023/06/23 07:14:14;;;;;;;4.03;2.33;;;24.50;63.90;;;;;;5005984;28;20547;-66
2023/06/23 07:16:40;;;;;;;2.90;2.50;;;24.50;64.10;;;;;;5003154;28;20042;-68
2023/06/23 07:19:05;;;;;;;3.70;2.72;;;24.50;64.00;;;;;;5006149;28;20083;-67
2023/06/23 07:21:32;;;;;;;4.55;2.85;;;24.40;63.70;;;;;;5001791;28;20037;-67
2023/06/23 07:23:57;;;;;;;3.72;2.35;;;24.30;63.80;;;;;;5003684;28;20034;-67
2023/06/23 07:26:23;;;;;;;3.08;2.60;;;24.30;63.90;;;;;;5005612;28;25112;-67
2023/06/23 07:28:48;;;;;;;4.75;2.70;;;24.30;63.80;;;;;;5005722;28;20041;-67
2023/06/23 07:31:14;;;;;;;5.15;3.05;;;24.30;63.50;;;;;;5001103;28;20396;-65
2023/06/23 07:33:41;;;;;;;2.67;2.47;;;24.20;63.30;;;;;;5001892;28;20044;-68
2023/06/23 07:36:06;;;;;;;4.18;2.88;;;24.20;63.40;;;;;;5004274;28;20123;-67
2023/06/23 07:38:32;;;;;;;4.60;2.97;;;24.10;63.50;;;;;;5003205;28;20081;-66
2023/06/23 07:40:57;;;;;;;3.75;2.60;;;24.10;63.60;;;;;;5006627;28;20041;-68
2023/06/23 07:43:23;;;;;;;2.45;2.25;;;24.00;63.40;;;;;;5005683;28;21476;-66
2023/06/23 07:45:49;;;;;;;3.45;2.35;;;24.00;63.40;;;;;;5004781;28;20492;-68
2023/06/23 07:48:14;;;;;;;3.05;2.50;;;24.00;63.20;;;;;;5005772;28;20030;-66
2023/06/23 07:50:40;;;;;;;3.03;2.38;;;24.00;63.00;;;;;;5006018;28;20026;-67
2023/06/23 07:53:05;;;;;;;3.78;2.33;;;24.00;62.80;;;;;;5001726;28;20033;-66
2023/06/23 07:55:31;;;;;;;2.78;2.40;;;23.90;63.10;;;;;;5005002;28;20104;-67
2023/06/23 07:57:56;;;;;;;4.40;2.60;;;23.90;63.40;;;;;;5003603;28;20038;-66
2023/06/23 08:00:23;;;;;;;3.15;2.35;;;24.00;63.30;;;;;;5004018;28;20377;-67
2023/06/23 08:02:49;;;;;;;4.22;3.13;;;24.10;64.00;;;;;;5004941;28;20026;-68
2023/06/23 08:05:14;;;;;;;5.65;2.42;;;24.10;63.00;;;;;;5005661;28;20034;-66
2023/06/23 08:07:40;;;;;;;3.22;2.83;;;24.00;63.40;;;;;;5004938;28;20045;-67
2023/06/23 08:10:05;;;;;;;5.88;2.80;;;24.00;63.40;;;;;;5006240;28;20038;-67
2023/06/23 08:12:31;;;;;;;2.95;2.30;;;24.00;63.60;;;;;;4998800;28;20034;-67
2023/06/23 08:14:57;;;;;;;6.50;2.33;;;24.00;63.70;;;;;;5003516;28;20061;-68
2023/06/23 08:17:22;;;;;;;2.67;2.40;;;24.00;63.30;;;;;;5004172;28;20474;-67
2023/06/23 08:19:48;;;;;;;2.22;2.00;;;23.90;62.90;;;;;;5003545;28;20032;-67
2023/06/23 08:22:14;;;;;;;2.33;1.88;;;23.90;62.80;;;;;;5004175;28;20080;-67
2023/06/23 08:24:39;;;;;;;4.18;2.35;;;24.00;62.50;;;;;;5004213;28;20641;-68
2023/06/23 08:27:06;;;;;;;1.60;1.45;;;23.80;62.10;;;;;;5003358;28;20030;-67
2023/06/23 08:29:32;;;;;;;3.30;2.05;;;23.80;62.40;;;;;;5002588;28;20502;-67
2023/06/23 08:31:57;;;;;;;2.67;2.08;;;23.80;62.20;;;;;;5001443;28;20121;-67
2023/06/23 08:34:22;;;;;;;2.55;1.80;;;23.80;62.30;;;;;;5002619;28;20033;-69
2023/06/23 08:36:48;;;;;;;2.78;1.73;;;23.80;62.30;;;;;;5002201;28;20053;-67
2023/06/23 08:39:13;;;;;;;1.70;1.60;;;23.80;62.20;;;;;;5004967;28;20396;-67
2023/06/23 08:41:43;;;;;;;4.13;1.77;;;23.70;62.20;;;;;;5004142;28;20025;-68
2023/06/23 08:44:13;;;;;;;1.90;1.70;;;23.80;62.70;;;;;;5001238;28;20176;-67
2023/06/23 08:46:41;;;;;;;3.15;1.98;;;23.80;62.80;;;;;;5002323;28;20113;-67
2023/06/23 08:49:10;;;;;;;3.70;1.83;;;23.80;63.00;;;;;;5003128;28;20057;-67
2023/06/23 08:51:36;;;;;;;3.45;1.90;;;23.80;62.80;;;;;;5003592;28;20084;-67
2023/06/23 08:54:03;;;;;;;2.47;1.50;;;23.80;62.60;;;;;;5003018;28;20065;-67
2023/06/23 08:56:28;;;;;;;2.40;1.65;;;23.70;63.00;;;;;;5021182;28;20029;-67
2023/06/23 08:58:54;;;;;;;1.90;1.65;;;23.70;62.90;;;;;;5001030;28;20049;-67
2023/06/23 09:01:20;;;;;;;1.92;1.63;;;23.70;62.70;;;;;;5002975;28;20175;-67
2023/06/23 09:03:45;;;;;;;2.13;1.70;;;23.60;62.50;;;;;;5004600;28;20102;-66
2023/06/23 09:06:11;;;;;;;4.10;1.70;;;23.70;62.70;;;;;;5005119;28;20030;-66
2023/06/23 09:08:36;;;;;;;2.92;1.45;;;23.70;62.30;;;;;;5002334;28;20053;-67
2023/06/23 09:11:02;;;;;;;2.33;1.60;;;23.80;62.20;;;;;;5005243;28;20451;-66
2023/06/23 09:13:38;;;;;;;3.03;1.90;;;23.80;62.00;;;;;;5005013;28;20117;-65
2023/06/23 09:16:04;;;;;;;1.42;1.33;;;23.90;62.30;;;;;;5002135;28;20037;-67
2023/06/23 09:18:38;;;;;;;2.58;1.60;;;23.90;61.90;;;;;;5004822;28;20030;-66
2023/06/23 09:21:05;;;;;;;1.55;1.45;;;23.80;61.80;;;;;;5004136;28;20104;-68
2023/06/23 09:23:31;;;;;;;1.55;1.25;;;23.90;62.20;;;;;;5000380;28;20030;-68
2023/06/23 09:25:57;;;;;;;2.97;1.50;;;23.90;62.50;;;;;;5001654;28;20625;-68
2023/06/23 09:28:37;;;;;;;1.67;1.33;;;23.90;62.30;;;;;;5003291;28;20037;-68
2023/06/23 09:31:14;;;;;;;1.88;1.45;;;23.90;62.40;;;;;;5002310;28;20816;-67
2023/06/23 09:33:51;;;;;;;1.67;1.10;;;23.90;62.10;;;;;;4996229;28;20065;-68
2023/06/23 09:36:17;;;;;;;1.25;1.00;;;23.80;61.80;;;;;;5003957;28;20516;-66
2023/06/23 09:38:44;;;;;;;1.85;1.10;;;23.80;62.00;;;;;;5003329;28;20045;-67
2023/06/23 09:41:15;;;;;;;1.20;1.08;;;23.70;61.60;;;;;;5004327;28;20133;-67
2023/06/23 09:43:43;;;;;;;2.83;1.20;;;23.70;61.80;;;;;;4998930;28;20552;-66
2023/06/23 09:46:11;;;;;;;3.05;1.30;;;23.70;61.70;;;;;;5002714;28;20026;-67
2023/06/23 09:48:37;;;;;;;1.13;1.00;;;23.80;62.10;;;;;;5002639;28;20125;-67
2023/06/23 09:51:04;;;;;;;2.38;1.05;;;23.70;61.90;;;;;;5000507;28;20095;-67
2023/06/23 09:53:35;;;;;;;1.25;0.90;;;23.70;61.90;;;;;;5013175;28;20033;-67
2023/06/23 09:56:03;;;;;;;1.10;1.00;;;23.70;62.20;;;;;;5008942;28;20029;-67
2023/06/23 09:58:31;;;;;;;1.10;1.00;;;23.70;62.20;;;;;;4999984;28;20033;-66
2023/06/23 10:01:01;;;;;;;3.47;1.00;;;23.70;62.10;;;;;;5003616;28;20046;-67
2023/06/23 10:03:29;;;;;;;1.02;0.88;;;23.70;62.10;;;;;;5001185;28;20037;-67
2023/06/23 10:05:59;;;;;;;0.90;0.80;;;23.70;62.00;;;;;;5003614;28;20030;-67
2023/06/23 10:08:27;;;;;;;2.22;0.88;;;23.70;62.20;;;;;;5002110;28;20045;-67
2023/06/23 10:10:53;;;;;;;1.05;0.93;;;23.60;61.90;;;;;;5000043;28;20030;-66
2023/06/23 10:13:20;;;;;;;1.08;1.02;;;23.60;61.80;;;;;;4999169;28;20044;-67
2023/06/23 10:15:46;;;;;;;1.02;0.93;;;23.50;62.10;;;;;;5002711;28;20034;-67
2023/06/23 10:18:13;;;;;;;0.80;0.80;;;23.50;62.20;;;;;;5003229;28;20034;-67
2023/06/23 10:20:39;;;;;;;1.10;1.00;;;23.60;62.30;;;;;;4999829;28;20038;-67
2023/06/23 10:23:06;;;;;;;1.27;1.00;;;23.60;61.90;;;;;;5000751;28;20396;-67
2023/06/23 10:25:35;;;;;;;1.20;0.80;;;23.50;62.10;;;;;;5002875;28;20044;-67
2023/06/23 10:28:06;;;;;;;1.75;0.98;;;23.60;62.40;;;;;;5001778;28;20112;-67
2023/06/23 10:30:32;;;;;;;2.88;1.13;;;23.60;62.20;;;;;;4999781;28;20386;-67
2023/06/23 10:32:58;;;;;;;0.90;0.90;;;23.60;62.50;;;;;;5002195;28;20045;-67
2023/06/23 10:35:24;;;;;;;1.13;0.70;;;23.60;62.30;;;;;;5002228;28;20503;-67
2023/06/23 10:37:58;;;;;;;0.80;0.80;;;23.60;62.50;;;;;;5002290;28;20049;-66
2023/06/23 10:40:25;;;;;;;1.60;0.90;;;23.60;62.20;;;;;;5002857;28;20038;-67
2023/06/23 10:42:53;;;;;;;0.73;0.70;;;23.60;62.50;;;;;;4999939;28;20034;-67
2023/06/23 10:45:19;;;;;;;2.03;0.73;;;23.60;62.90;;;;;;5002427;28;20068;-66
2023/06/23 10:47:45;;;;;;;3.03;0.98;;;23.60;63.20;;;;;;5002570;28;20050;-67
2023/06/23 10:50:12;;;;;;;2.58;0.77;;;23.60;62.80;;;;;;4999521;28;20033;-66
2023/06/23 10:52:37;;;;;;;3.95;0.85;;;23.60;62.70;;;;;;5000655;28;20037;-69
2023/06/23 10:55:42;;;;;;;0.93;0.70;;;23.50;62.40;;;;;;5002282;28;20022;-68
2023/06/23 10:58:18;;;;;;;1.13;0.82;;;23.50;62.80;;;;;;4990079;28;20392;-67
2023/06/23 11:01:04;;;;;;;1.83;0.70;;;23.50;63.00;;;;;;5006659;28;20118;-68
2023/06/23 11:03:32;;;;;;;1.00;0.80;;;23.60;63.00;;;;;;5003279;28;20103;-67
2023/06/23 11:06:02;;;;;;;1.05;0.95;;;23.50;62.40;;;;;;5006329;28;20395;-68
2023/06/23 11:08:31;;;;;;;0.63;0.63;;;23.50;62.90;;;;;;5005762;28;20041;-67
2023/06/23 11:11:01;;;;;;;0.73;0.55;;;23.40;62.70;;;;;;5005116;28;20040;-67
2023/06/23 11:13:41;;;;;;;2.03;0.80;;;23.40;63.00;;;;;;5005662;28;20036;-67
2023/06/23 11:16:30;;;;;;;0.90;0.50;;;23.40;63.00;;;;;;5003740;28;20084;-67
2023/06/23 11:18:57;;;;;;;0.63;0.63;;;23.40;63.00;;;;;;4999750;28;20103;-67
2023/06/23 11:21:44;;;;;;;0.50;0.50;;;23.30;62.80;;;;;;5003995;28;20161;-68
2023/06/23 11:24:20;;;;;;;1.85;0.60;;;23.30;62.80;;;;;;5006279;28;20069;-67
2023/06/23 11:27:02;;;;;;;0.77;0.60;;;23.30;63.00;;;;;;5007281;28;20121;-67
2023/06/23 11:29:28;;;;;;;1.67;0.60;;;23.30;63.10;;;;;;5005349;28;20122;-66
2023/06/23 11:32:11;;;;;;;0.52;0.43;;;23.30;63.10;;;;;;5006626;28;20037;-67
2023/06/23 11:34:57;;;;;;;0.90;0.47;;;23.30;62.80;;;;;;5005937;28;20062;-68
2023/06/23 11:37:28;;;;;;;0.40;0.40;;;23.40;62.80;;;;;;5004264;28;20045;-67
2023/06/23 11:39:54;;;;;;;0.40;0.40;;;23.40;62.90;;;;;;5004240;28;20034;-67
2023/06/23 11:42:21;;;;;;;0.38;0.35;;;23.40;62.80;;;;;;5005267;28;20038;-65
2023/06/23 11:44:48;;;;;;;1.52;0.57;;;23.40;62.90;;;;;;5006009;28;20034;-68
2023/06/23 11:47:13;;;;;;;0.60;0.47;;;23.40;63.30;;;;;;5003680;28;20091;-68
2023/06/23 11:49:39;;;;;;;0.40;0.40;;;23.40;63.20;;;;;;5004879;28;20038;-66
2023/06/23 11:52:05;;;;;;;2.08;0.40;;;23.20;62.90;;;;;;5002965;28;20044;-66
2023/06/23 11:54:33;;;;;;;0.93;0.47;;;23.30;63.40;;;;;;5000566;28;20038;-64
2023/06/23 11:57:03;;;;;;;1.42;0.30;;;23.30;63.40;;;;;;5003599;28;20026;-66
2023/06/23 11:59:38;;;;;;;0.80;0.40;;;23.30;63.90;;;;;;5003199;28;20497;-66
2023/06/23 12:02:05;;;;;;;1.05;0.30;;;23.30;64.30;;;;;;5005845;28;20472;-67
2023/06/23 12:04:34;;;;;;;0.35;0.20;;;23.20;64.70;;;;;;5003902;28;20030;-65
2023/06/23 12:07:00;;;;;;;0.57;0.30;;;23.30;65.10;;;;;;5002587;28;20087;-66
2023/06/23 12:09:27;;;;;;;0.50;0.30;;;23.30;65.40;;;;;;5003838;28;20778;-64
2023/06/23 12:11:54;;;;;;;0.30;0.30;;;23.40;65.50;;;;;;5003935;28;20025;-67
2023/06/23 12:14:30;;;;;;;0.80;0.30;;;23.30;65.60;;;;;;5003762;28;20551;-67
2023/06/23 12:17:07;;;;;;;0.40;0.40;;;23.40;65.90;;;;;;4998463;28;20038;-68
2023/06/23 12:19:33;;;;;;;2.60;0.30;;;23.40;66.00;;;;;;4999025;28;20053;-66
2023/06/23 12:21:59;;;;;;;0.80;0.40;;;23.30;66.10;;;;;;5005641;28;20072;-68
2023/06/23 12:24:24;;;;;;;0.30;0.30;;;23.20;66.20;;;;;;5002253;28;20296;-67
2023/06/23 12:26:51;;;;;;;0.30;0.30;;;23.20;66.60;;;;;;5004920;28;20396;-68
2023/06/23 12:29:18;;;;;;;0.40;0.30;;;23.20;66.60;;;;;;5006302;28;20105;-67
2023/06/23 12:31:52;;;;;;;0.30;0.30;;;23.20;66.60;;;;;;5004579;28;20034;-68
2023/06/23 12:34:18;;;;;;;1.75;0.30;;;23.20;66.70;;;;;;5001551;28;20492;-67
2023/06/23 12:36:44;;;;;;;0.30;0.30;;;23.20;66.50;;;;;;5004499;28;20065;-67
2023/06/23 12:39:12;;;;;;;1.25;0.30;;;23.10;66.80;;;;;;5002215;28;20121;-67
2023/06/23 12:41:40;;;;;;;0.43;0.25;;;23.10;66.50;;;;;;5003668;28;20038;-62
2023/06/23 12:44:05;;;;;;;0.55;0.40;;;23.10;66.70;;;;;;5004590;28;20116;-67
2023/06/23 12:46:31;;;;;;;0.20;0.20;;;23.10;66.70;;;;;;5005120;28;20038;-68
2023/06/23 12:48:57;;;;;;;0.75;0.20;;;23.10;66.90;;;;;;5003747;28;20041;-66
2023/06/23 12:51:36;;;;;;;1.42;0.30;;;23.10;66.80;;;;;;5001289;28;20041;-65
2023/06/23 12:54:03;;;;;;;1.88;0.85;;;23.10;66.80;;;;;;5001874;28;20026;-66
2023/06/23 12:56:28;;;;;;;0.95;0.30;;;23.10;66.80;;;;;;5001901;28;20045;-66